sensor_id;sensor_type;location;lat;lon;timestamp;P1;durP1;ratioP1;P2;durP2;ratioP2
26062;SDS011;13837;48.562;12.108;2022-07-17T00:00:50;8.25;;;6.75;;
26062;SDS011;13837;48.562;12.108;2022-07-17T00:03:17;8.15;;;6.00;;
26062;SDS011;13837;48.562;12.108;2022-07-17T00:05:43;7.10;;;5.97;;
26062;SDS011;13837;48.562;12.108;2022-07-17T00:08:27;8.20;;;6.40;;
26062;SDS011;13837;48.562;12.108;2022-07-17T00:10:59;7.72;;;6.15;;
26062;SDS011;13837;48.562;12.108;2022-07-17T00:13:26;8.57;;;6.75;;
26062;SDS011;13837;48.562;12.108;2022-07-17T00:15:52;11.25;;;6.90;;
26062;SDS011;13837;48.562;12.108;2022-07-17T00:18:18;15.18;;;6.60;;
26062;SDS011;13837;48.562;12.108;2022-07-17T00:20:43;10.20;;;6.53;;
26062;SDS011;13837;48.562;12.108;2022-07-17T00:23:09;7.18;;;6.35;;
26062;SDS011;13837;48.562;12.108;2022-07-17T00:25:35;7.13;;;6.32;;
26062;SDS011;13837;48.562;12.108;2022-07-17T00:28:01;8.27;;;6.20;;
26062;SDS011;13837;48.562;12.108;2022-07-17T00:30:27;6.90;;;6.20;;
26062;SDS011;13837;48.562;12.108;2022-07-17T00:32:53;6.68;;;6.07;;
26062;SDS011;13837;48.562;12.108;2022-07-17T00:35:19;10.90;;;6.40;;
26062;SDS011;13837;48.562;12.108;2022-07-17T00:37:46;7.15;;;6.55;;
26062;SDS011;13837;48.562;12.108;2022-07-17T00:40:13;11.75;;;6.57;;
26062;SDS011;13837;48.562;12.108;2022-07-17T00:42:42;7.47;;;6.85;;
26062;SDS011;13837;48.562;12.108;2022-07-17T00:45:08;10.52;;;7.10;;
26062;SDS011;13837;48.562;12.108;2022-07-17T00:47:47;8.77;;;7.15;;
26062;SDS011;13837;48.562;12.108;2022-07-17T00:50:14;9.20;;;7.40;;
26062;SDS011;13837;48.562;12.108;2022-07-17T00:52:40;10.68;;;8.07;;
26062;SDS011;13837;48.562;12.108;2022-07-17T00:55:05;7.68;;;6.80;;
26062;SDS011;13837;48.562;12.108;2022-07-17T00:57:32;7.93;;;7.07;;
26062;SDS011;13837;48.562;12.108;2022-07-17T01:00:00;8.02;;;7.13;;
26062;SDS011;13837;48.562;12.108;2022-07-17T01:02:25;8.18;;;7.35;;
26062;SDS011;13837;48.562;12.108;2022-07-17T01:04:51;7.57;;;6.85;;
26062;SDS011;13837;48.562;12.108;2022-07-17T01:07:17;9.02;;;7.93;;
26062;SDS011;13837;48.562;12.108;2022-07-17T01:09:43;8.20;;;7.40;;
26062;SDS011;13837;48.562;12.108;2022-07-17T01:12:17;9.23;;;8.35;;
26062;SDS011;13837;48.562;12.108;2022-07-17T01:15:15;10.95;;;8.20;;
26062;SDS011;13837;48.562;12.108;2022-07-17T01:17:41;12.60;;;7.90;;
26062;SDS011;13837;48.562;12.108;2022-07-17T01:20:08;10.80;;;8.80;;
26062;SDS011;13837;48.562;12.108;2022-07-17T01:22:41;9.13;;;8.20;;
26062;SDS011;13837;48.562;12.108;2022-07-17T01:25:11;8.05;;;7.25;;
26062;SDS011;13837;48.562;12.108;2022-07-17T01:27:37;9.20;;;7.85;;
26062;SDS011;13837;48.562;12.108;2022-07-17T01:30:03;8.73;;;7.82;;
26062;SDS011;13837;48.562;12.108;2022-07-17T01:32:31;14.30;;;8.20;;
26062;SDS011;13837;48.562;12.108;2022-07-17T01:34:58;8.15;;;7.45;;
26062;SDS011;13837;48.562;12.108;2022-07-17T01:37:23;8.18;;;7.38;;
26062;SDS011;13837;48.562;12.108;2022-07-17T01:39:49;9.88;;;7.47;;
26062;SDS011;13837;48.562;12.108;2022-07-17T01:42:17;8.60;;;7.35;;
26062;SDS011;13837;48.562;12.108;2022-07-17T01:44:44;8.00;;;7.20;;
26062;SDS011;13837;48.562;12.108;2022-07-17T01:47:12;10.65;;;7.63;;
26062;SDS011;13837;48.562;12.108;2022-07-17T01:49:42;10.23;;;7.80;;
26062;SDS011;13837;48.562;12.108;2022-07-17T01:52:12;9.40;;;8.52;;
26062;SDS011;13837;48.562;12.108;2022-07-17T01:54:38;9.07;;;7.97;;
26062;SDS011;13837;48.562;12.108;2022-07-17T01:57:05;8.32;;;7.53;;
26062;SDS011;13837;48.562;12.108;2022-07-17T01:59:31;8.60;;;7.38;;
26062;SDS011;13837;48.562;12.108;2022-07-17T02:01:56;12.05;;;7.35;;
26062;SDS011;13837;48.562;12.108;2022-07-17T02:04:22;9.05;;;8.15;;
26062;SDS011;13837;48.562;12.108;2022-07-17T02:06:48;9.00;;;8.10;;
26062;SDS011;13837;48.562;12.108;2022-07-17T02:09:13;7.72;;;6.50;;
26062;SDS011;13837;48.562;12.108;2022-07-17T02:11:39;8.40;;;7.60;;
26062;SDS011;13837;48.562;12.108;2022-07-17T02:14:05;8.00;;;6.50;;
26062;SDS011;13837;48.562;12.108;2022-07-17T02:16:30;8.95;;;7.03;;
26062;SDS011;13837;48.562;12.108;2022-07-17T02:18:56;7.47;;;6.78;;
26062;SDS011;13837;48.562;12.108;2022-07-17T02:21:23;9.05;;;7.13;;
26062;SDS011;13837;48.562;12.108;2022-07-17T02:23:49;11.50;;;7.45;;
26062;SDS011;13837;48.562;12.108;2022-07-17T02:26:14;7.75;;;6.75;;
26062;SDS011;13837;48.562;12.108;2022-07-17T02:28:40;14.38;;;7.32;;
26062;SDS011;13837;48.562;12.108;2022-07-17T02:31:06;16.33;;;15.02;;
26062;SDS011;13837;48.562;12.108;2022-07-17T02:33:31;15.68;;;14.65;;
26062;SDS011;13837;48.562;12.108;2022-07-17T02:35:57;17.00;;;15.60;;
26062;SDS011;13837;48.562;12.108;2022-07-17T02:38:23;16.38;;;15.10;;
26062;SDS011;13837;48.562;12.108;2022-07-17T02:40:48;15.90;;;14.73;;
26062;SDS011;13837;48.562;12.108;2022-07-17T02:43:15;16.63;;;15.27;;
26062;SDS011;13837;48.562;12.108;2022-07-17T02:45:41;9.95;;;7.22;;
26062;SDS011;13837;48.562;12.108;2022-07-17T02:48:07;7.65;;;6.85;;
26062;SDS011;13837;48.562;12.108;2022-07-17T02:50:32;8.45;;;7.65;;
26062;SDS011;13837;48.562;12.108;2022-07-17T02:52:58;8.63;;;7.72;;
26062;SDS011;13837;48.562;12.108;2022-07-17T02:55:24;9.05;;;7.13;;
26062;SDS011;13837;48.562;12.108;2022-07-17T02:57:49;7.88;;;7.10;;
26062;SDS011;13837;48.562;12.108;2022-07-17T03:00:16;11.73;;;7.53;;
26062;SDS011;13837;48.562;12.108;2022-07-17T03:02:43;12.20;;;7.00;;
26062;SDS011;13837;48.562;12.108;2022-07-17T03:05:09;8.02;;;7.10;;
26062;SDS011;13837;48.562;12.108;2022-07-17T03:07:36;9.43;;;7.40;;
26062;SDS011;13837;48.562;12.108;2022-07-17T03:10:02;11.05;;;7.35;;
26062;SDS011;13837;48.562;12.108;2022-07-17T03:12:28;7.95;;;6.93;;
26062;SDS011;13837;48.562;12.108;2022-07-17T03:14:54;8.93;;;7.28;;
26062;SDS011;13837;48.562;12.108;2022-07-17T03:17:20;13.50;;;10.23;;
26062;SDS011;13837;48.562;12.108;2022-07-17T03:19:46;35.58;;;18.65;;
26062;SDS011;13837;48.562;12.108;2022-07-17T03:22:11;35.97;;;19.75;;
26062;SDS011;13837;48.562;12.108;2022-07-17T03:24:37;21.33;;;14.75;;
26062;SDS011;13837;48.562;12.108;2022-07-17T03:27:03;16.73;;;11.05;;
26062;SDS011;13837;48.562;12.108;2022-07-17T03:29:28;12.00;;;9.82;;
26062;SDS011;13837;48.562;12.108;2022-07-17T03:31:54;10.43;;;9.10;;
26062;SDS011;13837;48.562;12.108;2022-07-17T03:34:20;10.05;;;8.73;;
26062;SDS011;13837;48.562;12.108;2022-07-17T03:36:46;9.73;;;8.57;;
26062;SDS011;13837;48.562;12.108;2022-07-17T03:39:13;10.02;;;8.88;;
26062;SDS011;13837;48.562;12.108;2022-07-17T03:41:39;13.07;;;8.32;;
26062;SDS011;13837;48.562;12.108;2022-07-17T03:44:04;9.73;;;8.60;;
26062;SDS011;13837;48.562;12.108;2022-07-17T03:46:32;9.07;;;7.95;;
26062;SDS011;13837;48.562;12.108;2022-07-17T03:48:57;13.15;;;10.50;;
26062;SDS011;13837;48.562;12.108;2022-07-17T03:51:23;11.95;;;10.57;;
26062;SDS011;13837;48.562;12.108;2022-07-17T03:53:49;13.15;;;10.98;;
26062;SDS011;13837;48.562;12.108;2022-07-17T03:56:15;13.18;;;10.18;;
26062;SDS011;13837;48.562;12.108;2022-07-17T03:58:40;9.85;;;8.85;;
26062;SDS011;13837;48.562;12.108;2022-07-17T04:01:06;10.10;;;9.10;;
26062;SDS011;13837;48.562;12.108;2022-07-17T04:03:32;10.70;;;8.75;;
26062;SDS011;13837;48.562;12.108;2022-07-17T04:05:57;9.55;;;8.10;;
26062;SDS011;13837;48.562;12.108;2022-07-17T04:08:23;9.43;;;8.52;;
26062;SDS011;13837;48.562;12.108;2022-07-17T04:10:49;12.45;;;8.30;;
26062;SDS011;13837;48.562;12.108;2022-07-17T04:13:15;10.10;;;8.60;;
26062;SDS011;13837;48.562;12.108;2022-07-17T04:15:41;8.80;;;7.70;;
26062;SDS011;13837;48.562;12.108;2022-07-17T04:18:24;9.57;;;7.88;;
26062;SDS011;13837;48.562;12.108;2022-07-17T04:20:56;9.60;;;8.05;;
26062;SDS011;13837;48.562;12.108;2022-07-17T04:23:23;14.43;;;8.05;;
26062;SDS011;13837;48.562;12.108;2022-07-17T04:25:49;10.75;;;8.93;;
26062;SDS011;13837;48.562;12.108;2022-07-17T04:28:15;10.40;;;8.52;;
26062;SDS011;13837;48.562;12.108;2022-07-17T04:30:41;9.35;;;8.45;;
26062;SDS011;13837;48.562;12.108;2022-07-17T04:33:06;9.73;;;8.90;;
26062;SDS011;13837;48.562;12.108;2022-07-17T04:35:32;8.80;;;7.93;;
26062;SDS011;13837;48.562;12.108;2022-07-17T04:37:58;10.10;;;7.72;;
26062;SDS011;13837;48.562;12.108;2022-07-17T04:40:24;9.55;;;8.18;;
26062;SDS011;13837;48.562;12.108;2022-07-17T04:42:50;11.13;;;7.85;;
26062;SDS011;13837;48.562;12.108;2022-07-17T04:45:15;8.73;;;7.05;;
26062;SDS011;13837;48.562;12.108;2022-07-17T04:47:41;8.38;;;7.47;;
26062;SDS011;13837;48.562;12.108;2022-07-17T04:50:08;9.93;;;7.43;;
26062;SDS011;13837;48.562;12.108;2022-07-17T04:52:34;8.40;;;7.45;;
26062;SDS011;13837;48.562;12.108;2022-07-17T04:55:00;8.07;;;7.28;;
26062;SDS011;13837;48.562;12.108;2022-07-17T04:57:25;8.07;;;7.38;;
26062;SDS011;13837;48.562;12.108;2022-07-17T04:59:51;8.15;;;7.45;;
26062;SDS011;13837;48.562;12.108;2022-07-17T05:02:17;8.13;;;7.32;;
26062;SDS011;13837;48.562;12.108;2022-07-17T05:04:43;7.82;;;7.13;;
26062;SDS011;13837;48.562;12.108;2022-07-17T05:07:09;7.38;;;6.65;;
26062;SDS011;13837;48.562;12.108;2022-07-17T05:09:34;8.02;;;7.13;;
26062;SDS011;13837;48.562;12.108;2022-07-17T05:12:00;7.57;;;6.80;;
26062;SDS011;13837;48.562;12.108;2022-07-17T05:14:26;10.15;;;6.43;;
26062;SDS011;13837;48.562;12.108;2022-07-17T05:16:52;10.48;;;6.63;;
26062;SDS011;13837;48.562;12.108;2022-07-17T05:19:18;6.78;;;6.05;;
26062;SDS011;13837;48.562;12.108;2022-07-17T05:21:43;7.63;;;6.40;;
26062;SDS011;13837;48.562;12.108;2022-07-17T05:24:09;6.85;;;6.25;;
26062;SDS011;13837;48.562;12.108;2022-07-17T05:26:35;6.03;;;5.53;;
26062;SDS011;13837;48.562;12.108;2022-07-17T05:29:01;6.60;;;5.75;;
26062;SDS011;13837;48.562;12.108;2022-07-17T05:31:27;7.03;;;6.20;;
26062;SDS011;13837;48.562;12.108;2022-07-17T05:33:53;6.85;;;6.20;;
26062;SDS011;13837;48.562;12.108;2022-07-17T05:36:18;6.30;;;5.70;;
26062;SDS011;13837;48.562;12.108;2022-07-17T05:38:44;7.05;;;6.40;;
26062;SDS011;13837;48.562;12.108;2022-07-17T05:41:10;6.93;;;6.22;;
26062;SDS011;13837;48.562;12.108;2022-07-17T05:43:35;7.60;;;5.60;;
26062;SDS011;13837;48.562;12.108;2022-07-17T05:46:01;6.15;;;5.60;;
26062;SDS011;13837;48.562;12.108;2022-07-17T05:48:27;5.65;;;5.15;;
26062;SDS011;13837;48.562;12.108;2022-07-17T05:50:55;7.90;;;5.20;;
26062;SDS011;13837;48.562;12.108;2022-07-17T05:53:20;5.68;;;4.93;;
26062;SDS011;13837;48.562;12.108;2022-07-17T05:55:46;8.07;;;5.07;;
26062;SDS011;13837;48.562;12.108;2022-07-17T05:58:11;9.13;;;4.93;;
26062;SDS011;13837;48.562;12.108;2022-07-17T06:00:37;4.45;;;4.00;;
26062;SDS011;13837;48.562;12.108;2022-07-17T06:03:03;4.95;;;4.50;;
26062;SDS011;13837;48.562;12.108;2022-07-17T06:05:29;7.28;;;4.57;;
26062;SDS011;13837;48.562;12.108;2022-07-17T06:07:56;4.68;;;4.28;;
26062;SDS011;13837;48.562;12.108;2022-07-17T06:10:23;4.30;;;3.90;;
26062;SDS011;13837;48.562;12.108;2022-07-17T06:12:50;7.95;;;4.38;;
26062;SDS011;13837;48.562;12.108;2022-07-17T06:15:18;4.78;;;4.38;;
26062;SDS011;13837;48.562;12.108;2022-07-17T06:17:45;4.60;;;4.20;;
26062;SDS011;13837;48.562;12.108;2022-07-17T06:20:11;4.65;;;4.25;;
26062;SDS011;13837;48.562;12.108;2022-07-17T06:22:38;6.68;;;4.25;;
26062;SDS011;13837;48.562;12.108;2022-07-17T06:25:04;4.20;;;3.80;;
26062;SDS011;13837;48.562;12.108;2022-07-17T06:27:30;7.60;;;4.15;;
26062;SDS011;13837;48.562;12.108;2022-07-17T06:29:55;6.78;;;4.55;;
26062;SDS011;13837;48.562;12.108;2022-07-17T06:32:21;6.70;;;4.00;;
26062;SDS011;13837;48.562;12.108;2022-07-17T06:34:47;5.80;;;4.20;;
26062;SDS011;13837;48.562;12.108;2022-07-17T06:37:12;6.70;;;4.40;;
26062;SDS011;13837;48.562;12.108;2022-07-17T06:39:38;4.82;;;3.83;;
26062;SDS011;13837;48.562;12.108;2022-07-17T06:42:04;6.38;;;4.20;;
26062;SDS011;13837;48.562;12.108;2022-07-17T06:44:30;6.10;;;3.80;;
26062;SDS011;13837;48.562;12.108;2022-07-17T06:46:55;4.10;;;3.70;;
26062;SDS011;13837;48.562;12.108;2022-07-17T06:49:21;4.28;;;3.88;;
26062;SDS011;13837;48.562;12.108;2022-07-17T06:51:47;4.25;;;3.85;;
26062;SDS011;13837;48.562;12.108;2022-07-17T06:54:13;4.00;;;3.60;;
26062;SDS011;13837;48.562;12.108;2022-07-17T06:56:39;6.05;;;4.35;;
26062;SDS011;13837;48.562;12.108;2022-07-17T06:59:05;5.38;;;3.70;;
26062;SDS011;13837;48.562;12.108;2022-07-17T07:01:37;5.45;;;3.53;;
26062;SDS011;13837;48.562;12.108;2022-07-17T07:04:03;5.88;;;3.78;;
26062;SDS011;13837;48.562;12.108;2022-07-17T07:06:29;6.75;;;3.53;;
26062;SDS011;13837;48.562;12.108;2022-07-17T07:08:55;4.10;;;3.70;;
26062;SDS011;13837;48.562;12.108;2022-07-17T07:11:22;5.68;;;4.00;;
26062;SDS011;13837;48.562;12.108;2022-07-17T07:13:49;4.13;;;3.67;;
26062;SDS011;13837;48.562;12.108;2022-07-17T07:16:15;5.20;;;3.58;;
26062;SDS011;13837;48.562;12.108;2022-07-17T07:18:40;3.88;;;3.35;;
26062;SDS011;13837;48.562;12.108;2022-07-17T07:21:06;3.83;;;3.45;;
26062;SDS011;13837;48.562;12.108;2022-07-17T07:23:32;7.28;;;3.70;;
26062;SDS011;13837;48.562;12.108;2022-07-17T07:25:58;4.68;;;3.92;;
26062;SDS011;13837;48.562;12.108;2022-07-17T07:28:23;5.68;;;3.33;;
26062;SDS011;13837;48.562;12.108;2022-07-17T07:30:49;12.23;;;3.28;;
26062;SDS011;13837;48.562;12.108;2022-07-17T07:33:15;4.55;;;3.70;;
26062;SDS011;13837;48.562;12.108;2022-07-17T07:35:41;4.50;;;3.30;;
26062;SDS011;13837;48.562;12.108;2022-07-17T07:38:07;3.10;;;2.80;;
26062;SDS011;13837;48.562;12.108;2022-07-17T07:40:33;3.50;;;3.20;;
26062;SDS011;13837;48.562;12.108;2022-07-17T07:42:59;3.45;;;3.15;;
26062;SDS011;13837;48.562;12.108;2022-07-17T07:45:25;3.60;;;3.30;;
26062;SDS011;13837;48.562;12.108;2022-07-17T07:47:51;5.60;;;2.97;;
26062;SDS011;13837;48.562;12.108;2022-07-17T07:50:17;4.95;;;3.47;;
26062;SDS011;13837;48.562;12.108;2022-07-17T07:52:44;4.32;;;3.50;;
26062;SDS011;13837;48.562;12.108;2022-07-17T07:55:10;4.13;;;3.42;;
26062;SDS011;13837;48.562;12.108;2022-07-17T07:57:37;3.38;;;3.08;;
26062;SDS011;13837;48.562;12.108;2022-07-17T08:00:06;3.58;;;3.28;;
26062;SDS011;13837;48.562;12.108;2022-07-17T08:02:37;3.50;;;3.20;;
26062;SDS011;13837;48.562;12.108;2022-07-17T08:05:03;4.82;;;2.88;;
26062;SDS011;13837;48.562;12.108;2022-07-17T08:07:29;3.22;;;3.03;;
26062;SDS011;13837;48.562;12.108;2022-07-17T08:09:56;3.40;;;3.10;;
26062;SDS011;13837;48.562;12.108;2022-07-17T08:12:22;3.78;;;3.33;;
26062;SDS011;13837;48.562;12.108;2022-07-17T08:14:48;6.85;;;3.30;;
26062;SDS011;13837;48.562;12.108;2022-07-17T08:17:15;2.75;;;2.55;;
26062;SDS011;13837;48.562;12.108;2022-07-17T08:19:40;3.70;;;3.38;;
26062;SDS011;13837;48.562;12.108;2022-07-17T08:22:06;3.72;;;3.30;;
26062;SDS011;13837;48.562;12.108;2022-07-17T08:24:32;6.63;;;3.70;;
26062;SDS011;13837;48.562;12.108;2022-07-17T08:26:57;3.28;;;2.97;;
26062;SDS011;13837;48.562;12.108;2022-07-17T08:29:23;3.88;;;3.17;;
26062;SDS011;13837;48.562;12.108;2022-07-17T08:31:49;3.03;;;2.80;;
26062;SDS011;13837;48.562;12.108;2022-07-17T08:34:15;4.68;;;2.70;;
26062;SDS011;13837;48.562;12.108;2022-07-17T08:36:41;5.30;;;3.10;;
26062;SDS011;13837;48.562;12.108;2022-07-17T08:39:07;3.35;;;2.95;;
26062;SDS011;13837;48.562;12.108;2022-07-17T08:41:36;3.13;;;2.83;;
26062;SDS011;13837;48.562;12.108;2022-07-17T08:44:06;4.20;;;2.88;;
26062;SDS011;13837;48.562;12.108;2022-07-17T08:46:36;3.28;;;2.97;;
26062;SDS011;13837;48.562;12.108;2022-07-17T08:49:04;3.40;;;2.60;;
26062;SDS011;13837;48.562;12.108;2022-07-17T08:51:31;3.13;;;2.90;;
26062;SDS011;13837;48.562;12.108;2022-07-17T08:53:58;5.28;;;2.60;;
26062;SDS011;13837;48.562;12.108;2022-07-17T08:56:24;7.97;;;2.85;;
26062;SDS011;13837;48.562;12.108;2022-07-17T08:58:50;5.22;;;3.15;;
26062;SDS011;13837;48.562;12.108;2022-07-17T09:01:17;2.72;;;2.30;;
26062;SDS011;13837;48.562;12.108;2022-07-17T09:03:54;2.47;;;2.33;;
26062;SDS011;13837;48.562;12.108;2022-07-17T09:06:21;2.40;;;2.20;;
26062;SDS011;13837;48.562;12.108;2022-07-17T09:08:47;2.85;;;2.20;;
26062;SDS011;13837;48.562;12.108;2022-07-17T09:11:13;2.70;;;2.33;;
26062;SDS011;13837;48.562;12.108;2022-07-17T09:13:42;2.88;;;2.67;;
26062;SDS011;13837;48.562;12.108;2022-07-17T09:16:11;2.90;;;2.40;;
26062;SDS011;13837;48.562;12.108;2022-07-17T09:18:47;2.90;;;2.60;;
26062;SDS011;13837;48.562;12.108;2022-07-17T09:21:18;3.05;;;2.63;;
26062;SDS011;13837;48.562;12.108;2022-07-17T09:23:56;2.45;;;2.22;;
26062;SDS011;13837;48.562;12.108;2022-07-17T09:26:30;2.85;;;2.30;;
26062;SDS011;13837;48.562;12.108;2022-07-17T09:28:58;2.63;;;2.17;;
26062;SDS011;13837;48.562;12.108;2022-07-17T09:31:29;3.17;;;2.20;;
26062;SDS011;13837;48.562;12.108;2022-07-17T09:33:56;2.78;;;2.58;;
26062;SDS011;13837;48.562;12.108;2022-07-17T09:36:23;3.10;;;1.83;;
26062;SDS011;13837;48.562;12.108;2022-07-17T09:38:52;6.90;;;2.38;;
26062;SDS011;13837;48.562;12.108;2022-07-17T09:41:19;4.65;;;2.63;;
26062;SDS011;13837;48.562;12.108;2022-07-17T09:43:48;2.00;;;1.90;;
26062;SDS011;13837;48.562;12.108;2022-07-17T09:48:53;2.92;;;2.30;;
26062;SDS011;13837;48.562;12.108;2022-07-17T09:51:22;2.35;;;2.13;;
26062;SDS011;13837;48.562;12.108;2022-07-17T09:53:50;4.63;;;2.28;;
26062;SDS011;13837;48.562;12.108;2022-07-17T09:56:19;3.00;;;2.20;;
26062;SDS011;13837;48.562;12.108;2022-07-17T09:58:50;5.55;;;2.50;;
26062;SDS011;13837;48.562;12.108;2022-07-17T10:01:18;2.50;;;2.28;;
26062;SDS011;13837;48.562;12.108;2022-07-17T10:03:45;2.53;;;2.33;;
26062;SDS011;13837;48.562;12.108;2022-07-17T10:06:14;5.60;;;2.47;;
26062;SDS011;13837;48.562;12.108;2022-07-17T10:08:40;2.03;;;1.92;;
26062;SDS011;13837;48.562;12.108;2022-07-17T10:11:09;3.03;;;2.78;;
26062;SDS011;13837;48.562;12.108;2022-07-17T10:13:38;2.58;;;2.10;;
26062;SDS011;13837;48.562;12.108;2022-07-17T10:16:06;2.40;;;2.05;;
26062;SDS011;13837;48.562;12.108;2022-07-17T10:18:36;2.22;;;2.03;;
26062;SDS011;13837;48.562;12.108;2022-07-17T10:21:10;4.32;;;2.45;;
26062;SDS011;13837;48.562;12.108;2022-07-17T10:23:39;2.30;;;2.17;;
26062;SDS011;13837;48.562;12.108;2022-07-17T10:26:05;2.35;;;2.22;;
26062;SDS011;13837;48.562;12.108;2022-07-17T10:28:38;2.15;;;1.95;;
26062;SDS011;13837;48.562;12.108;2022-07-17T10:31:09;2.55;;;2.15;;
26062;SDS011;13837;48.562;12.108;2022-07-17T10:33:35;2.45;;;2.10;;
26062;SDS011;13837;48.562;12.108;2022-07-17T10:36:01;4.07;;;2.10;;
26062;SDS011;13837;48.562;12.108;2022-07-17T10:38:28;3.38;;;1.90;;
26062;SDS011;13837;48.562;12.108;2022-07-17T10:41:00;2.42;;;1.98;;
26062;SDS011;13837;48.562;12.108;2022-07-17T10:43:27;4.22;;;2.50;;
26062;SDS011;13837;48.562;12.108;2022-07-17T10:46:04;4.68;;;2.45;;
26062;SDS011;13837;48.562;12.108;2022-07-17T10:48:29;3.67;;;2.40;;
26062;SDS011;13837;48.562;12.108;2022-07-17T10:50:55;2.78;;;2.10;;
26062;SDS011;13837;48.562;12.108;2022-07-17T10:53:23;1.98;;;1.88;;
26062;SDS011;13837;48.562;12.108;2022-07-17T10:56:07;2.53;;;2.33;;
26062;SDS011;13837;48.562;12.108;2022-07-17T11:03:36;4.40;;;1.90;;
26062;SDS011;13837;48.562;12.108;2022-07-17T11:08:41;1.80;;;1.70;;
26062;SDS011;13837;48.562;12.108;2022-07-17T11:11:11;2.55;;;1.70;;
26062;SDS011;13837;48.562;12.108;2022-07-17T11:13:37;2.95;;;2.13;;
26062;SDS011;13837;48.562;12.108;2022-07-17T11:16:03;5.63;;;2.17;;
26062;SDS011;13837;48.562;12.108;2022-07-17T11:18:29;5.45;;;2.10;;
26062;SDS011;13837;48.562;12.108;2022-07-17T11:20:56;3.55;;;1.85;;
26062;SDS011;13837;48.562;12.108;2022-07-17T11:23:24;3.20;;;2.08;;
26062;SDS011;13837;48.562;12.108;2022-07-17T11:26:05;4.43;;;2.20;;
26062;SDS011;13837;48.562;12.108;2022-07-17T11:30:59;2.72;;;2.15;;
26062;SDS011;13837;48.562;12.108;2022-07-17T11:33:26;2.40;;;2.13;;
26062;SDS011;13837;48.562;12.108;2022-07-17T11:35:52;2.92;;;2.17;;
26062;SDS011;13837;48.562;12.108;2022-07-17T11:38:27;1.88;;;1.77;;
26062;SDS011;13837;48.562;12.108;2022-07-17T11:40:55;2.30;;;1.50;;
26062;SDS011;13837;48.562;12.108;2022-07-17T11:43:21;2.40;;;2.03;;
26062;SDS011;13837;48.562;12.108;2022-07-17T11:45:47;1.77;;;1.67;;
26062;SDS011;13837;48.562;12.108;2022-07-17T11:48:13;1.95;;;1.83;;
26062;SDS011;13837;48.562;12.108;2022-07-17T11:50:39;2.33;;;1.73;;
26062;SDS011;13837;48.562;12.108;2022-07-17T11:53:05;4.13;;;1.65;;
26062;SDS011;13837;48.562;12.108;2022-07-17T11:55:38;2.35;;;1.67;;
26062;SDS011;13837;48.562;12.108;2022-07-17T11:58:06;2.75;;;2.10;;
26062;SDS011;13837;48.562;12.108;2022-07-17T12:00:33;2.17;;;1.98;;
26062;SDS011;13837;48.562;12.108;2022-07-17T12:02:59;1.75;;;1.60;;
26062;SDS011;13837;48.562;12.108;2022-07-17T12:05:27;3.33;;;1.60;;
26062;SDS011;13837;48.562;12.108;2022-07-17T12:07:54;3.70;;;1.83;;
26062;SDS011;13837;48.562;12.108;2022-07-17T12:10:21;4.38;;;1.98;;
26062;SDS011;13837;48.562;12.108;2022-07-17T12:13:02;2.53;;;1.60;;
26062;SDS011;13837;48.562;12.108;2022-07-17T12:18:05;3.17;;;1.60;;
26062;SDS011;13837;48.562;12.108;2022-07-17T12:20:42;1.70;;;1.60;;
26062;SDS011;13837;48.562;12.108;2022-07-17T12:23:08;2.35;;;1.90;;
26062;SDS011;13837;48.562;12.108;2022-07-17T12:25:34;2.72;;;1.65;;
26062;SDS011;13837;48.562;12.108;2022-07-17T12:28:00;2.75;;;2.55;;
26062;SDS011;13837;48.562;12.108;2022-07-17T12:30:26;3.78;;;1.90;;
26062;SDS011;13837;48.562;12.108;2022-07-17T12:32:52;1.80;;;1.70;;
26062;SDS011;13837;48.562;12.108;2022-07-17T12:35:18;4.97;;;1.90;;
26062;SDS011;13837;48.562;12.108;2022-07-17T12:37:44;1.95;;;1.50;;
26062;SDS011;13837;48.562;12.108;2022-07-17T12:40:09;1.85;;;1.75;;
26062;SDS011;13837;48.562;12.108;2022-07-17T12:42:35;1.58;;;1.48;;
26062;SDS011;13837;48.562;12.108;2022-07-17T12:45:01;1.92;;;1.83;;
26062;SDS011;13837;48.562;12.108;2022-07-17T12:47:27;2.30;;;1.58;;
26062;SDS011;13837;48.562;12.108;2022-07-17T12:49:53;3.25;;;1.65;;
26062;SDS011;13837;48.562;12.108;2022-07-17T12:52:19;2.95;;;2.55;;
26062;SDS011;13837;48.562;12.108;2022-07-17T12:54:44;1.73;;;1.58;;
26062;SDS011;13837;48.562;12.108;2022-07-17T12:57:10;1.70;;;1.60;;
26062;SDS011;13837;48.562;12.108;2022-07-17T12:59:36;2.15;;;1.67;;
26062;SDS011;13837;48.562;12.108;2022-07-17T13:02:01;1.88;;;1.75;;
26062;SDS011;13837;48.562;12.108;2022-07-17T13:04:27;2.30;;;1.60;;
26062;SDS011;13837;48.562;12.108;2022-07-17T13:06:53;1.70;;;1.60;;
26062;SDS011;13837;48.562;12.108;2022-07-17T13:09:18;2.05;;;1.60;;
26062;SDS011;13837;48.562;12.108;2022-07-17T13:11:44;2.78;;;1.63;;
26062;SDS011;13837;48.562;12.108;2022-07-17T13:14:10;1.77;;;1.30;;
26062;SDS011;13837;48.562;12.108;2022-07-17T13:16:37;2.10;;;1.95;;
26062;SDS011;13837;48.562;12.108;2022-07-17T13:19:04;1.77;;;1.63;;
26062;SDS011;13837;48.562;12.108;2022-07-17T13:21:30;3.17;;;1.80;;
26062;SDS011;13837;48.562;12.108;2022-07-17T13:23:56;1.85;;;1.70;;
26062;SDS011;13837;48.562;12.108;2022-07-17T13:26:21;4.72;;;1.58;;
26062;SDS011;13837;48.562;12.108;2022-07-17T13:28:47;1.50;;;1.33;;
26062;SDS011;13837;48.562;12.108;2022-07-17T13:31:13;2.25;;;1.55;;
26062;SDS011;13837;48.562;12.108;2022-07-17T13:33:39;2.80;;;1.50;;
26062;SDS011;13837;48.562;12.108;2022-07-17T13:36:05;2.08;;;1.92;;
26062;SDS011;13837;48.562;12.108;2022-07-17T13:38:31;2.75;;;1.60;;
26062;SDS011;13837;48.562;12.108;2022-07-17T13:40:57;1.55;;;1.45;;
26062;SDS011;13837;48.562;12.108;2022-07-17T13:43:23;1.55;;;1.45;;
26062;SDS011;13837;48.562;12.108;2022-07-17T13:45:49;1.50;;;1.40;;
26062;SDS011;13837;48.562;12.108;2022-07-17T13:48:14;1.38;;;1.27;;
26062;SDS011;13837;48.562;12.108;2022-07-17T13:50:41;1.60;;;1.50;;
26062;SDS011;13837;48.562;12.108;2022-07-17T13:53:07;1.50;;;1.40;;
26062;SDS011;13837;48.562;12.108;2022-07-17T13:55:33;1.80;;;1.58;;
26062;SDS011;13837;48.562;12.108;2022-07-17T13:57:59;4.88;;;1.63;;
26062;SDS011;13837;48.562;12.108;2022-07-17T14:00:24;2.35;;;1.58;;
26062;SDS011;13837;48.562;12.108;2022-07-17T14:02:50;3.13;;;1.50;;
26062;SDS011;13837;48.562;12.108;2022-07-17T14:05:16;2.90;;;1.63;;
26062;SDS011;13837;48.562;12.108;2022-07-17T14:07:42;2.22;;;1.77;;
26062;SDS011;13837;48.562;12.108;2022-07-17T14:10:08;1.67;;;1.58;;
26062;SDS011;13837;48.562;12.108;2022-07-17T14:12:35;3.47;;;1.85;;
26062;SDS011;13837;48.562;12.108;2022-07-17T14:15:01;2.08;;;1.80;;
26062;SDS011;13837;48.562;12.108;2022-07-17T14:17:27;2.03;;;1.50;;
26062;SDS011;13837;48.562;12.108;2022-07-17T14:19:53;1.60;;;1.50;;
26062;SDS011;13837;48.562;12.108;2022-07-17T14:22:19;2.28;;;1.48;;
26062;SDS011;13837;48.562;12.108;2022-07-17T14:24:45;3.63;;;1.67;;
26062;SDS011;13837;48.562;12.108;2022-07-17T14:27:11;1.98;;;1.80;;
26062;SDS011;13837;48.562;12.108;2022-07-17T14:29:37;3.60;;;1.60;;
26062;SDS011;13837;48.562;12.108;2022-07-17T14:32:03;1.50;;;1.40;;
26062;SDS011;13837;48.562;12.108;2022-07-17T14:34:29;1.77;;;1.67;;
26062;SDS011;13837;48.562;12.108;2022-07-17T14:36:54;1.30;;;1.20;;
26062;SDS011;13837;48.562;12.108;2022-07-17T14:39:20;1.30;;;1.20;;
26062;SDS011;13837;48.562;12.108;2022-07-17T14:41:46;1.42;;;1.33;;
26062;SDS011;13837;48.562;12.108;2022-07-17T14:44:12;4.97;;;1.58;;